sensor_id;sensor_type;location;lat;lon;timestamp;P1;durP1;ratioP1;P2;durP2;ratioP2
12141;SDS011;6134;59.284;18.022;2023-07-31T00:00:20;5.07;;;4.57;;
12141;SDS011;6134;59.284;18.022;2023-07-31T00:02:49;4.75;;;4.35;;
12141;SDS011;6134;59.284;18.022;2023-07-31T00:05:19;4.88;;;4.38;;
12141;SDS011;6134;59.284;18.022;2023-07-31T00:07:48;4.60;;;4.20;;
12141;SDS011;6134;59.284;18.022;2023-07-31T00:10:17;4.55;;;4.15;;
12141;SDS011;6134;59.284;18.022;2023-07-31T00:12:46;4.28;;;3.90;;
12141;SDS011;6134;59.284;18.022;2023-07-31T00:15:15;4.43;;;4.00;;
12141;SDS011;6134;59.284;18.022;2023-07-31T00:17:43;4.90;;;4.50;;
12141;SDS011;6134;59.284;18.022;2023-07-31T00:20:12;5.03;;;4.13;;
12141;SDS011;6134;59.284;18.022;2023-07-31T00:22:42;5.20;;;4.70;;
12141;SDS011;6134;59.284;18.022;2023-07-31T00:25:11;5.35;;;4.85;;
12141;SDS011;6134;59.284;18.022;2023-07-31T00:27:40;4.82;;;4.43;;
12141;SDS011;6134;59.284;18.022;2023-07-31T00:30:11;5.00;;;4.60;;
12141;SDS011;6134;59.284;18.022;2023-07-31T00:32:39;4.88;;;4.47;;
12141;SDS011;6134;59.284;18.022;2023-07-31T00:35:09;5.15;;;4.60;;
12141;SDS011;6134;59.284;18.022;2023-07-31T00:37:37;5.30;;;4.80;;
12141;SDS011;6134;59.284;18.022;2023-07-31T00:40:08;5.03;;;4.50;;
12141;SDS011;6134;59.284;18.022;2023-07-31T00:42:37;5.68;;;5.10;;
12141;SDS011;6134;59.284;18.022;2023-07-31T00:45:07;4.85;;;4.45;;
12141;SDS011;6134;59.284;18.022;2023-07-31T00:47:36;5.32;;;4.82;;
12141;SDS011;6134;59.284;18.022;2023-07-31T00:50:06;5.03;;;4.60;;
12141;SDS011;6134;59.284;18.022;2023-07-31T00:52:35;5.40;;;4.60;;
12141;SDS011;6134;59.284;18.022;2023-07-31T00:55:04;4.90;;;4.50;;
12141;SDS011;6134;59.284;18.022;2023-07-31T00:57:34;4.68;;;4.28;;
12141;SDS011;6134;59.284;18.022;2023-07-31T01:00:05;4.88;;;4.38;;
12141;SDS011;6134;59.284;18.022;2023-07-31T01:02:34;4.70;;;4.30;;
12141;SDS011;6134;59.284;18.022;2023-07-31T01:05:04;5.22;;;4.70;;
12141;SDS011;6134;59.284;18.022;2023-07-31T01:07:35;5.53;;;4.15;;
12141;SDS011;6134;59.284;18.022;2023-07-31T01:10:08;4.82;;;4.40;;
12141;SDS011;6134;59.284;18.022;2023-07-31T01:12:40;4.85;;;4.45;;
12141;SDS011;6134;59.284;18.022;2023-07-31T01:15:10;4.88;;;4.40;;
12141;SDS011;6134;59.284;18.022;2023-07-31T01:17:41;5.43;;;4.57;;
12141;SDS011;6134;59.284;18.022;2023-07-31T01:20:11;6.13;;;4.85;;
12141;SDS011;6134;59.284;18.022;2023-07-31T01:25:46;5.38;;;4.97;;
12141;SDS011;6134;59.284;18.022;2023-07-31T01:28:17;5.50;;;5.00;;
12141;SDS011;6134;59.284;18.022;2023-07-31T01:30:48;5.55;;;4.82;;
12141;SDS011;6134;59.284;18.022;2023-07-31T01:33:17;5.03;;;4.63;;
12141;SDS011;6134;59.284;18.022;2023-07-31T01:35:46;4.95;;;4.55;;
12141;SDS011;6134;59.284;18.022;2023-07-31T01:38:20;4.88;;;4.43;;
12141;SDS011;6134;59.284;18.022;2023-07-31T01:40:52;5.22;;;4.43;;
12141;SDS011;6134;59.284;18.022;2023-07-31T01:43:21;4.43;;;4.03;;
12141;SDS011;6134;59.284;18.022;2023-07-31T01:45:50;6.65;;;4.97;;
12141;SDS011;6134;59.284;18.022;2023-07-31T01:48:19;4.93;;;4.53;;
12141;SDS011;6134;59.284;18.022;2023-07-31T01:50:48;5.15;;;4.65;;
12141;SDS011;6134;59.284;18.022;2023-07-31T01:53:17;5.30;;;4.80;;
12141;SDS011;6134;59.284;18.022;2023-07-31T01:55:45;5.15;;;4.70;;
12141;SDS011;6134;59.284;18.022;2023-07-31T01:58:16;5.85;;;4.78;;
12141;SDS011;6134;59.284;18.022;2023-07-31T02:00:44;4.95;;;4.53;;
12141;SDS011;6134;59.284;18.022;2023-07-31T02:03:14;5.68;;;4.78;;
12141;SDS011;6134;59.284;18.022;2023-07-31T02:05:46;5.20;;;4.70;;
12141;SDS011;6134;59.284;18.022;2023-07-31T02:08:15;4.80;;;4.38;;
12141;SDS011;6134;59.284;18.022;2023-07-31T02:10:44;8.10;;;4.93;;
12141;SDS011;6134;59.284;18.022;2023-07-31T02:13:13;5.35;;;4.65;;
12141;SDS011;6134;59.284;18.022;2023-07-31T02:15:43;5.93;;;4.65;;
12141;SDS011;6134;59.284;18.022;2023-07-31T02:18:13;4.80;;;4.40;;
12141;SDS011;6134;59.284;18.022;2023-07-31T02:20:42;4.93;;;4.32;;
12141;SDS011;6134;59.284;18.022;2023-07-31T02:23:12;5.03;;;4.63;;
12141;SDS011;6134;59.284;18.022;2023-07-31T02:25:42;5.90;;;4.60;;
12141;SDS011;6134;59.284;18.022;2023-07-31T02:28:11;5.32;;;4.82;;
12141;SDS011;6134;59.284;18.022;2023-07-31T02:30:43;5.60;;;5.15;;
12141;SDS011;6134;59.284;18.022;2023-07-31T02:33:14;5.43;;;4.93;;
12141;SDS011;6134;59.284;18.022;2023-07-31T02:35:43;5.55;;;5.00;;
12141;SDS011;6134;59.284;18.022;2023-07-31T02:38:12;5.00;;;4.53;;
12141;SDS011;6134;59.284;18.022;2023-07-31T02:40:41;6.07;;;5.47;;
12141;SDS011;6134;59.284;18.022;2023-07-31T02:43:09;6.78;;;6.10;;
12141;SDS011;6134;59.284;18.022;2023-07-31T02:45:38;7.13;;;6.10;;
12141;SDS011;6134;59.284;18.022;2023-07-31T02:48:07;6.10;;;5.20;;
12141;SDS011;6134;59.284;18.022;2023-07-31T02:50:37;5.85;;;5.25;;
12141;SDS011;6134;59.284;18.022;2023-07-31T02:53:06;6.35;;;5.75;;
12141;SDS011;6134;59.284;18.022;2023-07-31T02:55:35;6.50;;;5.85;;
12141;SDS011;6134;59.284;18.022;2023-07-31T02:58:03;5.95;;;5.32;;
12141;SDS011;6134;59.284;18.022;2023-07-31T03:00:32;5.70;;;4.95;;
12141;SDS011;6134;59.284;18.022;2023-07-31T03:03:01;6.43;;;5.18;;
12141;SDS011;6134;59.284;18.022;2023-07-31T03:05:30;5.20;;;4.80;;
12141;SDS011;6134;59.284;18.022;2023-07-31T03:08:00;5.60;;;5.10;;
12141;SDS011;6134;59.284;18.022;2023-07-31T03:10:29;7.82;;;5.28;;
12141;SDS011;6134;59.284;18.022;2023-07-31T03:12:58;6.47;;;5.22;;
12141;SDS011;6134;59.284;18.022;2023-07-31T03:15:27;6.28;;;4.95;;
12141;SDS011;6134;59.284;18.022;2023-07-31T03:17:56;6.07;;;5.47;;
12141;SDS011;6134;59.284;18.022;2023-07-31T03:20:25;6.50;;;5.45;;
12141;SDS011;6134;59.284;18.022;2023-07-31T03:22:53;6.53;;;5.32;;
12141;SDS011;6134;59.284;18.022;2023-07-31T03:25:23;7.60;;;6.07;;
12141;SDS011;6134;59.284;18.022;2023-07-31T03:27:52;8.75;;;5.47;;
12141;SDS011;6134;59.284;18.022;2023-07-31T03:30:21;5.90;;;5.35;;
12141;SDS011;6134;59.284;18.022;2023-07-31T03:32:50;6.22;;;5.60;;
12141;SDS011;6134;59.284;18.022;2023-07-31T03:35:18;6.10;;;5.50;;
12141;SDS011;6134;59.284;18.022;2023-07-31T03:37:47;6.00;;;5.40;;
12141;SDS011;6134;59.284;18.022;2023-07-31T03:40:16;6.03;;;5.50;;
12141;SDS011;6134;59.284;18.022;2023-07-31T03:42:46;7.43;;;5.82;;
12141;SDS011;6134;59.284;18.022;2023-07-31T03:45:15;7.07;;;5.97;;
12141;SDS011;6134;59.284;18.022;2023-07-31T03:47:45;6.80;;;6.03;;
12141;SDS011;6134;59.284;18.022;2023-07-31T03:50:13;6.72;;;5.97;;
12141;SDS011;6134;59.284;18.022;2023-07-31T03:52:42;6.63;;;5.93;;
12141;SDS011;6134;59.284;18.022;2023-07-31T03:55:11;7.63;;;5.85;;
12141;SDS011;6134;59.284;18.022;2023-07-31T03:57:40;7.18;;;6.07;;
12141;SDS011;6134;59.284;18.022;2023-07-31T04:00:10;10.48;;;6.47;;
12141;SDS011;6134;59.284;18.022;2023-07-31T04:02:40;8.40;;;6.53;;
12141;SDS011;6134;59.284;18.022;2023-07-31T04:05:09;11.25;;;6.47;;
12141;SDS011;6134;59.284;18.022;2023-07-31T04:07:38;7.32;;;6.60;;
12141;SDS011;6134;59.284;18.022;2023-07-31T04:10:07;7.78;;;6.97;;
12141;SDS011;6134;59.284;18.022;2023-07-31T04:12:39;8.20;;;6.65;;
12141;SDS011;6134;59.284;18.022;2023-07-31T04:15:08;7.30;;;6.60;;
12141;SDS011;6134;59.284;18.022;2023-07-31T04:17:38;8.75;;;7.07;;
12141;SDS011;6134;59.284;18.022;2023-07-31T04:20:07;8.40;;;7.15;;
12141;SDS011;6134;59.284;18.022;2023-07-31T04:22:36;6.32;;;5.72;;
12141;SDS011;6134;59.284;18.022;2023-07-31T04:25:05;7.20;;;5.60;;
12141;SDS011;6134;59.284;18.022;2023-07-31T04:27:34;6.45;;;5.85;;
12141;SDS011;6134;59.284;18.022;2023-07-31T04:30:03;6.93;;;6.00;;
12141;SDS011;6134;59.284;18.022;2023-07-31T04:32:32;6.82;;;5.22;;
12141;SDS011;6134;59.284;18.022;2023-07-31T04:35:03;6.10;;;5.57;;
12141;SDS011;6134;59.284;18.022;2023-07-31T04:37:32;7.25;;;5.85;;
12141;SDS011;6134;59.284;18.022;2023-07-31T04:40:01;7.22;;;6.20;;
12141;SDS011;6134;59.284;18.022;2023-07-31T04:42:29;7.03;;;6.22;;
12141;SDS011;6134;59.284;18.022;2023-07-31T04:44:58;7.80;;;6.60;;
12141;SDS011;6134;59.284;18.022;2023-07-31T04:47:27;7.13;;;6.43;;
12141;SDS011;6134;59.284;18.022;2023-07-31T04:49:56;10.20;;;6.72;;
12141;SDS011;6134;59.284;18.022;2023-07-31T04:52:26;9.55;;;6.60;;
12141;SDS011;6134;59.284;18.022;2023-07-31T04:54:55;7.60;;;6.78;;
12141;SDS011;6134;59.284;18.022;2023-07-31T04:57:23;12.27;;;7.22;;
12141;SDS011;6134;59.284;18.022;2023-07-31T04:59:52;8.73;;;6.28;;
12141;SDS011;6134;59.284;18.022;2023-07-31T05:02:21;7.05;;;6.25;;
12141;SDS011;6134;59.284;18.022;2023-07-31T05:04:51;7.72;;;5.72;;
12141;SDS011;6134;59.284;18.022;2023-07-31T05:07:20;6.80;;;5.57;;
12141;SDS011;6134;59.284;18.022;2023-07-31T05:09:50;6.55;;;6.03;;
12141;SDS011;6134;59.284;18.022;2023-07-31T05:12:18;8.18;;;6.38;;
12141;SDS011;6134;59.284;18.022;2023-07-31T05:14:47;11.90;;;6.18;;
12141;SDS011;6134;59.284;18.022;2023-07-31T05:17:16;6.68;;;5.82;;
12141;SDS011;6134;59.284;18.022;2023-07-31T05:19:45;8.38;;;5.82;;
12141;SDS011;6134;59.284;18.022;2023-07-31T05:22:14;6.35;;;5.85;;
12141;SDS011;6134;59.284;18.022;2023-07-31T05:24:42;6.88;;;6.18;;
12141;SDS011;6134;59.284;18.022;2023-07-31T05:27:13;6.43;;;5.53;;
12141;SDS011;6134;59.284;18.022;2023-07-31T05:29:45;7.70;;;5.70;;
12141;SDS011;6134;59.284;18.022;2023-07-31T05:32:13;6.25;;;5.10;;
12141;SDS011;6134;59.284;18.022;2023-07-31T05:34:42;5.57;;;5.03;;
12141;SDS011;6134;59.284;18.022;2023-07-31T05:37:11;5.78;;;5.07;;
12141;SDS011;6134;59.284;18.022;2023-07-31T05:39:40;5.93;;;5.03;;
12141;SDS011;6134;59.284;18.022;2023-07-31T05:42:09;5.18;;;4.68;;
12141;SDS011;6134;59.284;18.022;2023-07-31T05:44:39;4.65;;;4.25;;
12141;SDS011;6134;59.284;18.022;2023-07-31T05:47:07;4.90;;;4.40;;
12141;SDS011;6134;59.284;18.022;2023-07-31T05:49:36;5.72;;;4.70;;
12141;SDS011;6134;59.284;18.022;2023-07-31T05:52:05;6.00;;;4.97;;
12141;SDS011;6134;59.284;18.022;2023-07-31T05:54:34;4.97;;;4.47;;
12141;SDS011;6134;59.284;18.022;2023-07-31T05:57:04;5.80;;;5.30;;
12141;SDS011;6134;59.284;18.022;2023-07-31T05:59:33;5.43;;;4.88;;
12141;SDS011;6134;59.284;18.022;2023-07-31T06:02:03;5.05;;;4.60;;
12141;SDS011;6134;59.284;18.022;2023-07-31T06:04:32;5.57;;;5.07;;
12141;SDS011;6134;59.284;18.022;2023-07-31T06:07:01;6.38;;;5.78;;
12141;SDS011;6134;59.284;18.022;2023-07-31T06:09:30;6.13;;;5.50;;
12141;SDS011;6134;59.284;18.022;2023-07-31T06:11:59;6.97;;;5.20;;
12141;SDS011;6134;59.284;18.022;2023-07-31T06:14:28;5.95;;;5.10;;
12141;SDS011;6134;59.284;18.022;2023-07-31T06:16:57;6.00;;;5.40;;
12141;SDS011;6134;59.284;18.022;2023-07-31T06:19:28;5.72;;;5.20;;
12141;SDS011;6134;59.284;18.022;2023-07-31T06:21:56;6.53;;;5.10;;
12141;SDS011;6134;59.284;18.022;2023-07-31T06:24:25;6.78;;;4.90;;
12141;SDS011;6134;59.284;18.022;2023-07-31T06:26:54;5.07;;;4.50;;
12141;SDS011;6134;59.284;18.022;2023-07-31T06:29:24;6.35;;;4.85;;
12141;SDS011;6134;59.284;18.022;2023-07-31T06:31:52;4.10;;;3.80;;
12141;SDS011;6134;59.284;18.022;2023-07-31T06:34:21;4.50;;;4.10;;
12141;SDS011;6134;59.284;18.022;2023-07-31T06:36:51;6.40;;;3.88;;
12141;SDS011;6134;59.284;18.022;2023-07-31T06:39:20;4.32;;;3.95;;
12141;SDS011;6134;59.284;18.022;2023-07-31T06:41:49;5.07;;;3.58;;
12141;SDS011;6134;59.284;18.022;2023-07-31T06:44:19;8.45;;;3.97;;
12141;SDS011;6134;59.284;18.022;2023-07-31T06:46:48;7.05;;;3.58;;
12141;SDS011;6134;59.284;18.022;2023-07-31T06:49:17;7.03;;;3.75;;
12141;SDS011;6134;59.284;18.022;2023-07-31T06:51:46;4.47;;;3.72;;
12141;SDS011;6134;59.284;18.022;2023-07-31T06:54:16;4.80;;;3.13;;
12141;SDS011;6134;59.284;18.022;2023-07-31T06:56:44;4.68;;;2.90;;
12141;SDS011;6134;59.284;18.022;2023-07-31T06:59:13;5.10;;;2.97;;
12141;SDS011;6134;59.284;18.022;2023-07-31T07:01:42;3.92;;;3.20;;
12141;SDS011;6134;59.284;18.022;2023-07-31T07:04:10;3.90;;;2.90;;
12141;SDS011;6134;59.284;18.022;2023-07-31T07:06:39;3.63;;;2.90;;
12141;SDS011;6134;59.284;18.022;2023-07-31T07:09:09;5.10;;;3.10;;
12141;SDS011;6134;59.284;18.022;2023-07-31T07:11:39;4.95;;;3.25;;
12141;SDS011;6134;59.284;18.022;2023-07-31T07:14:08;3.63;;;2.97;;
12141;SDS011;6134;59.284;18.022;2023-07-31T07:16:36;3.97;;;3.20;;
12141;SDS011;6134;59.284;18.022;2023-07-31T07:19:08;8.68;;;3.30;;
12141;SDS011;6134;59.284;18.022;2023-07-31T07:21:37;6.40;;;3.60;;
12141;SDS011;6134;59.284;18.022;2023-07-31T07:24:05;5.25;;;3.20;;
12141;SDS011;6134;59.284;18.022;2023-07-31T07:26:34;3.55;;;3.25;;
12141;SDS011;6134;59.284;18.022;2023-07-31T07:29:05;5.55;;;3.17;;
12141;SDS011;6134;59.284;18.022;2023-07-31T07:31:34;8.35;;;3.35;;
12141;SDS011;6134;59.284;18.022;2023-07-31T07:34:03;5.13;;;3.15;;
12141;SDS011;6134;59.284;18.022;2023-07-31T07:36:32;5.53;;;3.42;;
12141;SDS011;6134;59.284;18.022;2023-07-31T07:39:01;6.75;;;3.45;;
12141;SDS011;6134;59.284;18.022;2023-07-31T07:41:30;7.20;;;3.08;;
12141;SDS011;6134;59.284;18.022;2023-07-31T07:43:58;4.43;;;3.15;;
12141;SDS011;6134;59.284;18.022;2023-07-31T07:46:29;5.80;;;3.20;;
12141;SDS011;6134;59.284;18.022;2023-07-31T07:48:57;4.82;;;3.22;;
12141;SDS011;6134;59.284;18.022;2023-07-31T07:51:26;6.20;;;3.85;;
12141;SDS011;6134;59.284;18.022;2023-07-31T07:53:57;3.88;;;2.60;;
12141;SDS011;6134;59.284;18.022;2023-07-31T07:56:26;4.43;;;3.10;;
12141;SDS011;6134;59.284;18.022;2023-07-31T07:58:55;3.45;;;3.00;;
12141;SDS011;6134;59.284;18.022;2023-07-31T08:01:24;3.13;;;2.83;;
12141;SDS011;6134;59.284;18.022;2023-07-31T08:03:54;4.05;;;2.78;;
12141;SDS011;6134;59.284;18.022;2023-07-31T08:06:23;3.30;;;2.90;;
12141;SDS011;6134;59.284;18.022;2023-07-31T08:08:51;3.80;;;2.78;;
12141;SDS011;6134;59.284;18.022;2023-07-31T08:11:20;3.80;;;3.00;;
12141;SDS011;6134;59.284;18.022;2023-07-31T08:13:50;5.78;;;3.42;;
12141;SDS011;6134;59.284;18.022;2023-07-31T08:16:18;4.82;;;2.63;;
12141;SDS011;6134;59.284;18.022;2023-07-31T08:18:47;3.72;;;2.83;;
12141;SDS011;6134;59.284;18.022;2023-07-31T08:21:18;6.18;;;2.83;;
12141;SDS011;6134;59.284;18.022;2023-07-31T08:23:47;6.55;;;2.75;;
12141;SDS011;6134;59.284;18.022;2023-07-31T08:26:15;3.42;;;2.53;;
12141;SDS011;6134;59.284;18.022;2023-07-31T08:28:44;4.85;;;2.90;;
12141;SDS011;6134;59.284;18.022;2023-07-31T08:31:13;2.92;;;2.70;;
12141;SDS011;6134;59.284;18.022;2023-07-31T08:33:42;3.63;;;2.85;;
12141;SDS011;6134;59.284;18.022;2023-07-31T08:36:11;5.80;;;2.50;;
12141;SDS011;6134;59.284;18.022;2023-07-31T08:38:41;4.28;;;2.60;;
12141;SDS011;6134;59.284;18.022;2023-07-31T08:41:10;3.67;;;2.70;;
12141;SDS011;6134;59.284;18.022;2023-07-31T08:43:40;3.72;;;2.70;;
12141;SDS011;6134;59.284;18.022;2023-07-31T08:46:09;5.97;;;3.22;;
12141;SDS011;6134;59.284;18.022;2023-07-31T08:48:38;5.03;;;2.90;;
12141;SDS011;6134;59.284;18.022;2023-07-31T08:51:07;6.28;;;2.50;;
12141;SDS011;6134;59.284;18.022;2023-07-31T08:53:36;5.15;;;2.90;;
12141;SDS011;6134;59.284;18.022;2023-07-31T08:56:06;5.78;;;2.92;;
12141;SDS011;6134;59.284;18.022;2023-07-31T08:58:35;4.85;;;2.60;;
12141;SDS011;6134;59.284;18.022;2023-07-31T09:01:04;4.90;;;2.40;;
12141;SDS011;6134;59.284;18.022;2023-07-31T09:03:33;2.20;;;2.00;;
12141;SDS011;6134;59.284;18.022;2023-07-31T09:06:04;4.90;;;1.98;;
12141;SDS011;6134;59.284;18.022;2023-07-31T09:08:33;3.47;;;2.25;;
12141;SDS011;6134;59.284;18.022;2023-07-31T09:11:02;4.60;;;2.17;;
12141;SDS011;6134;59.284;18.022;2023-07-31T09:13:32;3.10;;;2.17;;
12141;SDS011;6134;59.284;18.022;2023-07-31T09:16:01;4.57;;;2.40;;
12141;SDS011;6134;59.284;18.022;2023-07-31T09:18:30;2.72;;;2.28;;
12141;SDS011;6134;59.284;18.022;2023-07-31T09:21:02;4.30;;;2.88;;
12141;SDS011;6134;59.284;18.022;2023-07-31T09:23:40;4.95;;;2.88;;
12141;SDS011;6134;59.284;18.022;2023-07-31T09:26:09;3.30;;;2.20;;
12141;SDS011;6134;59.284;18.022;2023-07-31T09:28:41;2.47;;;2.28;;
12141;SDS011;6134;59.284;18.022;2023-07-31T09:31:10;2.92;;;2.03;;
12141;SDS011;6134;59.284;18.022;2023-07-31T09:33:44;2.92;;;2.17;;
12141;SDS011;6134;59.284;18.022;2023-07-31T09:36:23;2.95;;;2.22;;
12141;SDS011;6134;59.284;18.022;2023-07-31T09:38:51;3.50;;;1.92;;
12141;SDS011;6134;59.284;18.022;2023-07-31T09:41:20;3.60;;;2.08;;
12141;SDS011;6134;59.284;18.022;2023-07-31T09:43:54;4.65;;;2.42;;
12141;SDS011;6134;59.284;18.022;2023-07-31T09:46:22;2.88;;;1.95;;
12141;SDS011;6134;59.284;18.022;2023-07-31T09:49:03;8.43;;;3.20;;
12141;SDS011;6134;59.284;18.022;2023-07-31T09:51:32;3.05;;;1.75;;
12141;SDS011;6134;59.284;18.022;2023-07-31T09:54:10;3.72;;;2.40;;
12141;SDS011;6134;59.284;18.022;2023-07-31T09:56:41;3.03;;;1.90;;
12141;SDS011;6134;59.284;18.022;2023-07-31T09:59:12;4.60;;;2.05;;
12141;SDS011;6134;59.284;18.022;2023-07-31T10:01:42;3.92;;;2.13;;
12141;SDS011;6134;59.284;18.022;2023-07-31T10:04:14;4.00;;;2.20;;
12141;SDS011;6134;59.284;18.022;2023-07-31T10:06:45;2.83;;;1.77;;
12141;SDS011;6134;59.284;18.022;2023-07-31T10:09:15;4.07;;;2.10;;
12141;SDS011;6134;59.284;18.022;2023-07-31T10:11:46;5.38;;;2.10;;
12141;SDS011;6134;59.284;18.022;2023-07-31T10:14:19;3.25;;;2.13;;
12141;SDS011;6134;59.284;18.022;2023-07-31T10:16:48;6.18;;;2.90;;
12141;SDS011;6134;59.284;18.022;2023-07-31T10:19:18;3.35;;;2.25;;
12141;SDS011;6134;59.284;18.022;2023-07-31T10:21:47;3.97;;;2.13;;
12141;SDS011;6134;59.284;18.022;2023-07-31T10:24:17;3.15;;;2.30;;
12141;SDS011;6134;59.284;18.022;2023-07-31T10:26:46;4.22;;;1.80;;
12141;SDS011;6134;59.284;18.022;2023-07-31T10:29:15;2.88;;;1.98;;
12141;SDS011;6134;59.284;18.022;2023-07-31T10:31:46;4.22;;;1.80;;
12141;SDS011;6134;59.284;18.022;2023-07-31T10:34:15;4.50;;;2.25;;
12141;SDS011;6134;59.284;18.022;2023-07-31T10:36:47;2.75;;;1.75;;
12141;SDS011;6134;59.284;18.022;2023-07-31T10:42:09;4.68;;;1.92;;
12141;SDS011;6134;59.284;18.022;2023-07-31T10:44:38;3.85;;;2.13;;
12141;SDS011;6134;59.284;18.022;2023-07-31T10:47:09;2.63;;;1.83;;
12141;SDS011;6134;59.284;18.022;2023-07-31T10:49:38;3.40;;;2.17;;
12141;SDS011;6134;59.284;18.022;2023-07-31T10:52:09;4.40;;;2.10;;
12141;SDS011;6134;59.284;18.022;2023-07-31T10:54:39;2.92;;;2.15;;
12141;SDS011;6134;59.284;18.022;2023-07-31T10:57:18;3.72;;;2.33;;
12141;SDS011;6134;59.284;18.022;2023-07-31T10:59:48;2.05;;;1.75;;
12141;SDS011;6134;59.284;18.022;2023-07-31T11:05:08;4.03;;;2.17;;
12141;SDS011;6134;59.284;18.022;2023-07-31T11:07:46;2.35;;;1.85;;
12141;SDS011;6134;59.284;18.022;2023-07-31T11:10:16;2.40;;;1.77;;
12141;SDS011;6134;59.284;18.022;2023-07-31T11:12:45;5.85;;;2.00;;
12141;SDS011;6134;59.284;18.022;2023-07-31T11:15:14;3.55;;;1.77;;
12141;SDS011;6134;59.284;18.022;2023-07-31T11:17:43;2.80;;;2.30;;
12141;SDS011;6134;59.284;18.022;2023-07-31T11:20:13;4.90;;;1.90;;
12141;SDS011;6134;59.284;18.022;2023-07-31T11:22:42;4.22;;;1.98;;
12141;SDS011;6134;59.284;18.022;2023-07-31T11:25:11;3.35;;;1.95;;
12141;SDS011;6134;59.284;18.022;2023-07-31T11:27:41;5.63;;;2.10;;
12141;SDS011;6134;59.284;18.022;2023-07-31T11:30:10;3.58;;;2.03;;
12141;SDS011;6134;59.284;18.022;2023-07-31T11:32:39;3.67;;;2.28;;
12141;SDS011;6134;59.284;18.022;2023-07-31T11:35:12;2.85;;;2.15;;
12141;SDS011;6134;59.284;18.022;2023-07-31T11:37:41;3.92;;;1.90;;
12141;SDS011;6134;59.284;18.022;2023-07-31T11:40:11;3.83;;;1.80;;
12141;SDS011;6134;59.284;18.022;2023-07-31T11:42:40;4.45;;;1.80;;
12141;SDS011;6134;59.284;18.022;2023-07-31T11:45:09;3.20;;;1.80;;
12141;SDS011;6134;59.284;18.022;2023-07-31T11:47:38;2.47;;;1.60;;
12141;SDS011;6134;59.284;18.022;2023-07-31T11:50:10;3.10;;;1.65;;
12141;SDS011;6134;59.284;18.022;2023-07-31T11:52:42;4.15;;;2.17;;
12141;SDS011;6134;59.284;18.022;2023-07-31T11:55:12;7.38;;;2.83;;
12141;SDS011;6134;59.284;18.022;2023-07-31T11:57:41;2.55;;;1.98;;
12141;SDS011;6134;59.284;18.022;2023-07-31T12:00:12;3.92;;;1.98;;
12141;SDS011;6134;59.284;18.022;2023-07-31T12:02:41;2.92;;;1.77;;
12141;SDS011;6134;59.284;18.022;2023-07-31T12:05:11;3.13;;;1.50;;
12141;SDS011;6134;59.284;18.022;2023-07-31T12:07:45;4.55;;;1.73;;
12141;SDS011;6134;59.284;18.022;2023-07-31T12:10:23;2.95;;;1.95;;
12141;SDS011;6134;59.284;18.022;2023-07-31T12:12:55;1.70;;;1.60;;
12141;SDS011;6134;59.284;18.022;2023-07-31T12:15:29;3.03;;;1.80;;
12141;SDS011;6134;59.284;18.022;2023-07-31T12:17:58;2.28;;;1.83;;
12141;SDS011;6134;59.284;18.022;2023-07-31T12:20:28;2.67;;;2.08;;
12141;SDS011;6134;59.284;18.022;2023-07-31T12:22:59;4.78;;;2.15;;
12141;SDS011;6134;59.284;18.022;2023-07-31T12:25:30;2.22;;;1.90;;
12141;SDS011;6134;59.284;18.022;2023-07-31T12:28:03;2.33;;;1.73;;
12141;SDS011;6134;59.284;18.022;2023-07-31T12:30:33;4.43;;;2.00;;
12141;SDS011;6134;59.284;18.022;2023-07-31T12:33:06;2.25;;;1.60;;
12141;SDS011;6134;59.284;18.022;2023-07-31T12:35:35;2.22;;;1.60;;
12141;SDS011;6134;59.284;18.022;2023-07-31T12:38:06;4.18;;;1.63;;
12141;SDS011;6134;59.284;18.022;2023-07-31T12:40:36;1.73;;;1.50;;
12141;SDS011;6134;59.284;18.022;2023-07-31T12:43:05;3.72;;;1.85;;
12141;SDS011;6134;59.284;18.022;2023-07-31T12:45:34;2.47;;;1.60;;
12141;SDS011;6134;59.284;18.022;2023-07-31T12:48:03;3.90;;;1.80;;
12141;SDS011;6134;59.284;18.022;2023-07-31T12:50:32;2.75;;;1.52;;
12141;SDS011;6134;59.284;18.022;2023-07-31T12:53:03;1.73;;;1.63;;
12141;SDS011;6134;59.284;18.022;2023-07-31T12:55:33;2.10;;;1.90;;
12141;SDS011;6134;59.284;18.022;2023-07-31T12:58:03;2.67;;;2.20;;
12141;SDS011;6134;59.284;18.022;2023-07-31T13:00:32;3.72;;;1.70;;
12141;SDS011;6134;59.284;18.022;2023-07-31T13:03:01;4.25;;;2.25;;
12141;SDS011;6134;59.284;18.022;2023-07-31T13:05:30;2.38;;;2.03;;
12141;SDS011;6134;59.284;18.022;2023-07-31T13:07:59;4.50;;;2.47;;
12141;SDS011;6134;59.284;18.022;2023-07-31T13:10:28;3.22;;;1.60;;
12141;SDS011;6134;59.284;18.022;2023-07-31T13:12:58;1.90;;;1.65;;
12141;SDS011;6134;59.284;18.022;2023-07-31T13:15:27;3.33;;;2.08;;
12141;SDS011;6134;59.284;18.022;2023-07-31T13:17:56;1.90;;;1.80;;
12141;SDS011;6134;59.284;18.022;2023-07-31T13:20:24;4.18;;;1.80;;
12141;SDS011;6134;59.284;18.022;2023-07-31T13:22:53;5.03;;;2.08;;
12141;SDS011;6134;59.284;18.022;2023-07-31T13:25:22;2.22;;;2.00;;
12141;SDS011;6134;59.284;18.022;2023-07-31T13:27:51;2.40;;;2.03;;
12141;SDS011;6134;59.284;18.022;2023-07-31T13:30:21;4.03;;;2.13;;
12141;SDS011;6134;59.284;18.022;2023-07-31T13:32:50;2.28;;;2.05;;
12141;SDS011;6134;59.284;18.022;2023-07-31T13:35:19;3.92;;;1.85;;
12141;SDS011;6134;59.284;18.022;2023-07-31T13:37:47;2.55;;;2.13;;
12141;SDS011;6134;59.284;18.022;2023-07-31T13:40:16;2.20;;;2.00;;
12141;SDS011;6134;59.284;18.022;2023-07-31T13:42:45;2.42;;;1.90;;
12141;SDS011;6134;59.284;18.022;2023-07-31T13:45:15;3.50;;;2.00;;
12141;SDS011;6134;59.284;18.022;2023-07-31T13:47:45;2.55;;;1.83;;
12141;SDS011;6134;59.284;18.022;2023-07-31T13:50:14;2.22;;;1.90;;
12141;SDS011;6134;59.284;18.022;2023-07-31T13:52:43;3.40;;;2.10;;
12141;SDS011;6134;59.284;18.022;2023-07-31T13:55:12;4.82;;;2.00;;
12141;SDS011;6134;59.284;18.022;2023-07-31T13:57:41;4.40;;;2.15;;
12141;SDS011;6134;59.284;18.022;2023-07-31T14:00:10;5.93;;;2.20;;
12141;SDS011;6134;59.284;18.022;2023-07-31T14:02:39;3.40;;;2.13;;
12141;SDS011;6134;59.284;18.022;2023-07-31T14:05:09;5.72;;;2.30;;
12141;SDS011;6134;59.284;18.022;2023-07-31T14:07:38;2.92;;;2.10;;
12141;SDS011;6134;59.284;18.022;2023-07-31T14:10:07;2.33;;;2.08;;
12141;SDS011;6134;59.284;18.022;2023-07-31T14:12:36;3.63;;;2.30;;
12141;SDS011;6134;59.284;18.022;2023-07-31T14:15:09;3.45;;;2.55;;
12141;SDS011;6134;59.284;18.022;2023-07-31T14:17:38;3.40;;;2.60;;
12141;SDS011;6134;59.284;18.022;2023-07-31T14:20:07;4.97;;;2.20;;
12141;SDS011;6134;59.284;18.022;2023-07-31T14:22:38;3.63;;;2.40;;
12141;SDS011;6134;59.284;18.022;2023-07-31T14:25:07;3.28;;;2.13;;
12141;SDS011;6134;59.284;18.022;2023-07-31T14:27:37;6.22;;;2.50;;
12141;SDS011;6134;59.284;18.022;2023-07-31T14:30:06;5.47;;;2.58;;
12141;SDS011;6134;59.284;18.022;2023-07-31T14:32:35;4.93;;;2.95;;
12141;SDS011;6134;59.284;18.022;2023-07-31T14:35:04;4.50;;;2.67;;
12141;SDS011;6134;59.284;18.022;2023-07-31T14:37:37;4.13;;;2.70;;
12141;SDS011;6134;59.284;18.022;2023-07-31T14:40:08;4.63;;;3.05;;
12141;SDS011;6134;59.284;18.022;2023-07-31T14:42:37;4.13;;;2.72;;
12141;SDS011;6134;59.284;18.022;2023-07-31T14:45:07;4.80;;;3.53;;
12141;SDS011;6134;59.284;18.022;2023-07-31T14:47:36;5.20;;;3.10;;
12141;SDS011;6134;59.284;18.022;2023-07-31T14:50:05;4.32;;;2.67;;
12141;SDS011;6134;59.284;18.022;2023-07-31T14:52:34;3.55;;;2.67;;
12141;SDS011;6134;59.284;18.022;2023-07-31T14:55:03;5.65;;;2.88;;
12141;SDS011;6134;59.284;18.022;2023-07-31T14:57:34;4.57;;;2.88;;
12141;SDS011;6134;59.284;18.022;2023-07-31T15:00:03;6.32;;;3.05;;
12141;SDS011;6134;59.284;18.022;2023-07-31T15:02:34;4.78;;;3.10;;
12141;SDS011;6134;59.284;18.022;2023-07-31T15:05:03;4.13;;;2.92;;
12141;SDS011;6134;59.284;18.022;2023-07-31T15:07:32;3.95;;;2.72;;
12141;SDS011;6134;59.284;18.022;2023-07-31T15:10:01;6.05;;;3.42;;